Time;durP1;ratioP1;P1;durP2;ratioP2;P2;SDS_P1;SDS_P2;PMS_P1;PMS_P2;Temp;Humidity;BMP_temperature;BMP_pressure;BME280_temperature;BME280_humidity;BME280_pressure;Samples;Min_cycle;Max_cycle;Signal;HPM_P1;HPM_P2
2023/11/30 00:00:41;;;;;;;2.88;0.90;;;;;;;2.78;96.70;99727.13;5022446;28;20053;-45
2023/11/30 00:03:08;;;;;;;4.43;0.80;;;;;;;2.80;96.68;99730.38;5028790;28;20507;-52
2023/11/30 00:05:36;;;;;;;1.45;0.70;;;;;;;2.83;96.71;99723.47;5029110;28;20050;-46
2023/11/30 00:08:03;;;;;;;3.92;0.75;;;;;;;2.84;96.78;99720.41;5028609;28;20518;-45
2023/11/30 00:10:30;;;;;;;3.60;0.40;;;;;;;2.86;97.07;99712.69;5029057;28;20041;-45
2023/11/30 00:12:58;;;;;;;5.55;0.57;;;;;;;2.86;96.82;99709.16;5028422;28;20057;-48
2023/11/30 00:15:26;;;;;;;3.95;0.70;;;;;;;2.87;97.15;99708.03;5028505;28;20042;-46
2023/11/30 00:17:53;;;;;;;4.40;0.68;;;;;;;2.87;97.15;99708.84;5028439;28;20049;-47
2023/11/30 00:20:21;;;;;;;2.00;0.82;;;;;;;2.90;97.04;99713.66;5028843;28;20045;-45
2023/11/30 00:22:48;;;;;;;3.65;0.60;;;;;;;2.89;97.42;99712.03;5027495;28;20140;-46
2023/11/30 00:25:15;;;;;;;1.15;0.73;;;;;;;2.88;97.40;99709.66;5026978;28;20058;-45
2023/11/30 00:27:43;;;;;;;3.03;1.25;;;;;;;2.87;97.70;99714.31;5027956;28;20677;-45
2023/11/30 00:30:10;;;;;;;1.17;0.55;;;;;;;2.85;97.62;99704.81;5028242;28;20053;-46
2023/11/30 00:32:38;;;;;;;1.40;0.45;;;;;;;2.85;98.23;99702.88;5028426;28;20060;-49
2023/11/30 00:35:05;;;;;;;8.88;0.73;;;;;;;2.88;97.83;99704.19;5027741;28;20053;-46
2023/11/30 00:37:33;;;;;;;3.33;0.90;;;;;;;2.89;97.91;99703.03;5028127;28;20056;-47
2023/11/30 00:40:00;;;;;;;2.72;1.10;;;;;;;2.88;98.38;99694.06;5028469;28;20549;-45
2023/11/30 00:42:27;;;;;;;5.85;1.15;;;;;;;2.87;98.28;99697.09;5028282;28;20053;-45
2023/11/30 00:44:55;;;;;;;2.58;0.60;;;;;;;2.86;98.52;99690.03;5027551;28;20050;-48
2023/11/30 00:47:22;;;;;;;1.20;0.50;;;;;;;2.86;98.54;99690.81;5027964;28;20038;-45
2023/11/30 00:49:50;;;;;;;2.08;0.88;;;;;;;2.86;98.39;99687.31;5028242;28;20060;-46
2023/11/30 00:52:17;;;;;;;1.95;0.82;;;;;;;2.87;98.39;99683.41;5028085;28;20045;-46
2023/11/30 00:54:45;;;;;;;2.75;0.60;;;;;;;2.88;98.74;99677.66;5027808;28;20049;-45
2023/11/30 00:57:12;;;;;;;5.18;1.05;;;;;;;2.89;98.68;99690.19;5027237;28;20381;-46
2023/11/30 00:59:39;;;;;;;0.80;0.70;;;;;;;2.91;98.53;99696.13;5027902;28;20046;-46
2023/11/30 01:02:07;;;;;;;3.72;0.95;;;;;;;2.94;98.24;99690.03;5027502;28;20076;-45
2023/11/30 01:04:34;;;;;;;0.57;0.43;;;;;;;2.99;98.39;99700.00;5027344;28;20038;-46
2023/11/30 01:07:01;;;;;;;2.25;0.98;;;;;;;2.99;98.23;99700.78;5026787;28;20053;-48
2023/11/30 01:09:29;;;;;;;8.25;1.95;;;;;;;3.01;98.36;99693.09;5027153;28;20611;-45
2023/11/30 01:11:56;;;;;;;3.17;2.20;;;;;;;3.04;98.56;99697.91;5026420;28;20045;-46
2023/11/30 01:14:24;;;;;;;2.97;0.85;;;;;;;3.04;98.40;99695.16;5026917;28;20049;-48
2023/11/30 01:16:51;;;;;;;1.15;0.77;;;;;;;3.06;98.01;99695.66;5027252;28;20048;-46
2023/11/30 01:19:18;;;;;;;1.55;0.60;;;;;;;3.05;98.13;99691.31;5018586;28;20053;-45
2023/11/30 01:21:45;;;;;;;2.78;0.88;;;;;;;2.99;98.23;99691.81;4993335;28;20099;-45
2023/11/30 01:24:13;;;;;;;2.30;0.70;;;;;;;2.91;98.50;99687.91;5027801;28;20068;-46
2023/11/30 01:26:40;;;;;;;6.18;1.92;;;;;;;2.86;98.08;99679.88;5027079;28;20052;-45
2023/11/30 01:29:07;;;;;;;6.68;0.90;;;;;;;2.80;98.10;99670.25;5027728;28;20053;-47
2023/11/30 01:31:34;;;;;;;5.50;1.20;;;;;;;2.76;98.50;99668.44;5021790;28;20056;-45
2023/11/30 01:34:02;;;;;;;2.42;0.98;;;;;;;2.71;98.29;99674.88;5027288;28;20064;-52
2023/11/30 01:36:29;;;;;;;8.32;1.73;;;;;;;2.67;98.58;99679.41;5027204;28;20053;-51
2023/11/30 01:38:56;;;;;;;2.42;1.70;;;;;;;2.64;98.29;99674.56;5027216;28;20057;-50
2023/11/30 01:41:24;;;;;;;2.45;0.80;;;;;;;2.63;98.64;99678.41;5006397;28;20042;-49
2023/11/30 01:43:51;;;;;;;4.25;1.10;;;;;;;2.62;98.65;99671.31;5016427;28;20499;-46
2023/11/30 01:46:19;;;;;;;4.25;1.10;;;;;;;2.64;98.56;99674.56;5021544;28;20049;-46
2023/11/30 01:48:46;;;;;;;1.80;0.90;;;;;;;2.67;98.67;99682.13;5026833;28;20041;-45
2023/11/30 01:51:15;;;;;;;3.22;0.85;;;;;;;2.71;98.49;99682.28;5015127;28;20034;-45
2023/11/30 01:53:42;;;;;;;0.88;0.50;;;;;;;2.73;98.32;99683.56;5026802;28;20053;-46
2023/11/30 01:56:12;;;;;;;2.42;0.60;;;;;;;2.76;98.44;99682.94;5027128;28;20055;-48
2023/11/30 01:58:39;;;;;;;3.10;0.70;;;;;;;2.77;98.21;99681.00;5026682;28;20048;-46
2023/11/30 02:01:07;;;;;;;2.85;0.82;;;;;;;2.77;98.07;99684.53;5026090;28;20519;-46
2023/11/30 02:03:35;;;;;;;1.40;0.47;;;;;;;2.76;98.33;99691.13;5027216;28;20057;-46
2023/11/30 02:06:03;;;;;;;2.38;0.80;;;;;;;2.78;98.10;99688.88;5027253;28;20060;-46
2023/11/30 02:08:31;;;;;;;2.63;0.95;;;;;;;2.80;98.11;99680.38;5026620;28;20061;-47
2023/11/30 02:10:58;;;;;;;6.15;1.08;;;;;;;2.81;98.08;99690.97;5026621;28;20056;-46
2023/11/30 02:13:28;;;;;;;4.15;1.02;;;;;;;2.82;98.66;99695.31;5027186;28;20052;-47
2023/11/30 02:15:56;;;;;;;3.55;0.90;;;;;;;2.83;98.69;99685.19;5026921;28;20049;-46
2023/11/30 02:18:23;;;;;;;6.22;0.80;;;;;;;2.80;98.14;99683.09;5022748;28;20053;-48
2023/11/30 02:20:50;;;;;;;2.00;0.70;;;;;;;2.77;98.49;99676.34;5024047;28;20072;-45
2023/11/30 02:23:18;;;;;;;3.03;0.65;;;;;;;2.75;98.49;99678.59;5026941;28;20046;-46
2023/11/30 02:25:45;;;;;;;2.15;0.82;;;;;;;2.76;98.63;99682.94;5026323;28;20033;-46
2023/11/30 02:28:18;;;;;;;2.53;0.85;;;;;;;2.74;98.03;99682.44;5025407;28;20048;-45
2023/11/30 02:30:46;;;;;;;2.10;1.25;;;;;;;2.71;98.03;99687.75;5026573;28;20511;-52
2023/11/30 02:33:14;;;;;;;1.67;1.00;;;;;;;2.69;98.00;99684.53;5025356;28;20054;-47
2023/11/30 02:35:42;;;;;;;5.90;0.90;;;;;;;2.66;98.42;99679.69;5018261;28;20516;-46
2023/11/30 02:38:09;;;;;;;3.35;0.82;;;;;;;2.66;98.46;99685.16;5026559;28;20045;-49
2023/11/30 02:40:36;;;;;;;4.38;0.60;;;;;;;2.66;98.15;99680.50;5026763;28;20057;-45
2023/11/30 02:43:04;;;;;;;6.07;0.80;;;;;;;2.64;98.11;99682.75;5026922;28;20454;-45
2023/11/30 02:45:31;;;;;;;3.30;0.60;;;;;;;2.62;97.96;99679.50;5028053;28;20049;-46
2023/11/30 02:47:59;;;;;;;3.00;0.68;;;;;;;2.59;98.04;99680.19;5029554;28;20068;-46
2023/11/30 02:50:26;;;;;;;2.33;0.77;;;;;;;2.59;98.42;99674.72;5029194;28;20044;-45
2023/11/30 02:52:53;;;;;;;1.98;0.82;;;;;;;2.60;98.26;99668.09;5028310;28;20600;-48
2023/11/30 02:55:22;;;;;;;3.63;1.00;;;;;;;2.62;98.38;99671.31;5011678;28;20415;-45
2023/11/30 02:57:50;;;;;;;3.88;1.45;;;;;;;2.65;98.80;99678.09;5029803;28;20057;-46
2023/11/30 03:00:17;;;;;;;5.43;0.80;;;;;;;2.70;98.41;99664.28;5029214;28;20049;-47
2023/11/30 03:02:56;;;;;;;3.00;0.68;;;;;;;2.74;98.34;99671.50;4957114;23;20051;-48
2023/11/30 03:05:23;;;;;;;1.02;0.55;;;;;;;2.79;98.32;99665.09;4950727;29;20047;-45
2023/11/30 03:07:51;;;;;;;2.47;0.60;;;;;;;2.83;98.48;99674.28;4951915;29;20386;-45
2023/11/30 03:10:19;;;;;;;1.65;0.57;;;;;;;2.87;98.49;99678.75;4951299;28;20047;-49
2023/11/30 03:12:50;;;;;;;3.53;0.95;;;;;;;2.91;98.19;99674.25;4951559;28;20051;-48
2023/11/30 03:15:18;;;;;;;1.73;1.02;;;;;;;2.96;98.23;99663.19;4950190;29;20534;-49
2023/11/30 03:17:45;;;;;;;2.72;0.60;;;;;;;2.99;98.21;99673.47;4951779;29;20051;-47
2023/11/30 03:20:13;;;;;;;7.53;0.90;;;;;;;3.03;98.40;99679.91;4950978;29;20043;-47
2023/11/30 03:22:40;;;;;;;5.57;1.00;;;;;;;3.04;98.46;99672.50;4949962;29;20043;-45
2023/11/30 03:25:08;;;;;;;3.95;0.88;;;;;;;3.04;98.11;99686.19;4951972;29;20058;-45
2023/11/30 03:27:35;;;;;;;1.08;0.35;;;;;;;3.02;98.23;99704.81;4951624;29;20051;-46
2023/11/30 03:30:02;;;;;;;1.80;0.40;;;;;;;2.97;98.27;99699.50;4951873;29;20063;-47
2023/11/30 03:32:30;;;;;;;7.03;0.80;;;;;;;2.90;98.07;99694.53;4951434;29;20051;-49
2023/11/30 03:34:57;;;;;;;1.38;0.45;;;;;;;2.85;98.42;99689.22;4951121;29;20074;-46
2023/11/30 03:37:24;;;;;;;5.53;0.75;;;;;;;2.85;98.71;99694.69;4951222;29;20055;-44
2023/11/30 03:39:52;;;;;;;1.90;0.98;;;;;;;2.85;98.63;99700.16;4950336;29;20433;-48
2023/11/30 03:42:19;;;;;;;1.33;0.50;;;;;;;2.84;98.74;99697.72;4951186;29;20047;-49
2023/11/30 03:44:46;;;;;;;5.28;0.63;;;;;;;2.81;98.37;99701.91;4951001;29;20501;-45
2023/11/30 03:47:14;;;;;;;8.95;0.82;;;;;;;2.77;98.49;99714.59;4949678;28;20047;-47
2023/11/30 03:49:41;;;;;;;1.13;0.52;;;;;;;2.73;98.34;99715.53;4932931;29;20882;-46
2023/11/30 03:52:08;;;;;;;2.03;0.30;;;;;;;2.67;98.57;99738.69;4950619;28;20501;-45
2023/11/30 03:54:35;;;;;;;0.70;0.32;;;;;;;2.59;98.36;99745.75;4951669;29;20070;-49
2023/11/30 03:57:03;;;;;;;3.00;0.50;;;;;;;2.52;98.49;99750.84;4949453;28;20556;-45
2023/11/30 03:59:31;;;;;;;2.92;0.47;;;;;;;2.46;98.70;99763.84;4950154;29;20409;-47
2023/11/30 04:01:58;;;;;;;0.65;0.30;;;;;;;2.40;98.64;99765.13;4948669;29;20051;-47
2023/11/30 04:04:26;;;;;;;2.28;0.30;;;;;;;2.33;99.17;99763.97;4950703;29;20054;-47
2023/11/30 04:06:53;;;;;;;3.10;0.50;;;;;;;2.25;99.28;99762.78;4950936;29;20063;-49
2023/11/30 04:09:20;;;;;;;0.47;0.45;;;;;;;2.19;99.43;99750.41;4949872;29;20051;-47
2023/11/30 04:11:48;;;;;;;1.92;0.43;;;;;;;2.17;99.62;99740.91;4948873;29;20047;-47
2023/11/30 04:14:15;;;;;;;0.70;0.40;;;;;;;2.17;99.31;99743.66;4947069;29;20067;-46
2023/11/30 04:16:42;;;;;;;0.68;0.47;;;;;;;2.20;99.55;99751.19;4950874;28;20055;-50
2023/11/30 04:19:10;;;;;;;3.92;1.83;;;;;;;2.24;99.72;99749.47;4947887;28;20048;-47
2023/11/30 04:21:39;;;;;;;2.20;0.70;;;;;;;2.26;100.00;99748.03;4943701;29;20050;-44
2023/11/30 04:24:06;;;;;;;3.55;0.88;;;;;;;2.28;100.00;99744.97;4942567;29;20048;-47
2023/11/30 04:26:35;;;;;;;3.80;0.63;;;;;;;2.25;100.00;99734.69;4950675;29;20047;-44
2023/11/30 04:29:02;;;;;;;5.28;0.82;;;;;;;2.24;99.86;99741.25;4949994;29;20059;-46
2023/11/30 04:31:30;;;;;;;3.05;0.88;;;;;;;2.22;100.00;99729.84;4950828;29;20076;-48
2023/11/30 04:33:57;;;;;;;3.63;0.88;;;;;;;2.21;100.00;99739.16;4950438;29;20062;-47
2023/11/30 04:36:24;;;;;;;3.25;1.20;;;;;;;2.22;100.00;99738.06;4950089;29;20047;-49
2023/11/30 04:38:52;;;;;;;2.13;1.00;;;;;;;2.22;100.00;99730.66;4950764;29;20051;-48
2023/11/30 04:41:19;;;;;;;4.65;1.05;;;;;;;2.25;100.00;99723.78;4950693;29;20517;-48
2023/11/30 04:43:46;;;;;;;6.35;1.52;;;;;;;2.28;100.00;99734.84;4950066;29;20070;-49
2023/11/30 04:46:14;;;;;;;3.45;1.15;;;;;;;2.33;100.00;99733.94;4950464;29;20050;-46
2023/11/30 04:48:41;;;;;;;13.15;1.17;;;;;;;2.37;100.00;99741.16;4949879;29;20527;-47
2023/11/30 04:51:09;;;;;;;3.38;1.40;;;;;;;2.42;100.00;99751.13;4950055;29;20055;-47
2023/11/30 04:53:36;;;;;;;6.18;1.23;;;;;;;2.45;100.00;99756.78;4950223;29;20062;-45
2023/11/30 04:56:04;;;;;;;1.95;0.70;;;;;;;2.47;100.00;99751.00;4949524;29;20059;-46
2023/11/30 04:58:31;;;;;;;2.88;0.82;;;;;;;2.44;100.00;99746.16;4950111;29;20063;-45
2023/11/30 05:00:58;;;;;;;1.10;0.68;;;;;;;2.41;100.00;99754.97;4950136;29;20051;-49
2023/11/30 05:03:25;;;;;;;2.05;1.15;;;;;;;2.38;100.00;99752.91;4949914;29;20615;-48
2023/11/30 05:05:53;;;;;;;2.13;0.75;;;;;;;2.34;100.00;99757.38;4949036;29;20059;-51
2023/11/30 05:08:20;;;;;;;1.38;0.60;;;;;;;2.32;100.00;99751.44;4949407;28;20062;-46
2023/11/30 05:10:48;;;;;;;7.50;1.00;;;;;;;2.32;100.00;99745.97;4949957;29;20055;-47
2023/11/30 05:13:15;;;;;;;0.93;0.93;;;;;;;2.32;100.00;99751.44;4949691;29;20055;-45
2023/11/30 05:15:42;;;;;;;6.40;1.08;;;;;;;2.33;100.00;99753.03;4949807;29;20055;-48
2023/11/30 05:18:13;;;;;;;5.35;1.10;;;;;;;2.34;100.00;99758.19;4945888;29;20063;-47
2023/11/30 05:20:40;;;;;;;3.92;1.30;;;;;;;2.35;100.00;99761.72;4940166;29;20051;-47
2023/11/30 05:23:08;;;;;;;6.22;1.83;;;;;;;2.36;100.00;99747.75;4932935;29;20043;-45
2023/11/30 05:25:35;;;;;;;7.32;1.20;;;;;;;2.40;100.00;99764.31;4949653;29;20039;-47
2023/11/30 05:28:04;;;;;;;2.17;0.75;;;;;;;2.42;100.00;99759.34;4949465;29;20051;-49
2023/11/30 05:30:32;;;;;;;4.10;1.33;;;;;;;2.44;100.00;99754.34;4932707;29;20074;-49
2023/11/30 05:32:59;;;;;;;6.25;1.15;;;;;;;2.45;100.00;99762.25;4948818;29;20040;-47
2023/11/30 05:35:26;;;;;;;3.75;1.05;;;;;;;2.49;100.00;99765.13;4949479;29;20516;-45
2023/11/30 05:37:54;;;;;;;1.85;0.65;;;;;;;2.50;100.00;99764.03;4949099;29;20053;-46
2023/11/30 05:40:21;;;;;;;5.07;1.15;;;;;;;2.51;100.00;99770.31;4949399;29;20059;-47
2023/11/30 05:42:49;;;;;;;8.93;1.40;;;;;;;2.51;100.00;99762.91;4948115;28;20537;-43
2023/11/30 05:45:16;;;;;;;3.70;1.17;;;;;;;2.50;100.00;99764.03;4949299;29;20051;-43
2023/11/30 05:47:43;;;;;;;3.55;1.20;;;;;;;2.50;100.00;99771.41;4949239;29;20058;-44
2023/11/30 05:50:12;;;;;;;1.90;1.15;;;;;;;2.49;100.00;99769.81;4949473;29;20516;-44
2023/11/30 05:52:39;;;;;;;2.47;1.13;;;;;;;2.46;100.00;99763.84;4949529;29;20070;-48
2023/11/30 05:55:07;;;;;;;5.57;1.83;;;;;;;2.46;100.00;99754.88;4948916;29;20055;-47
2023/11/30 05:57:35;;;;;;;5.40;1.42;;;;;;;2.44;100.00;99748.88;4932198;29;20054;-46
2023/11/30 06:00:04;;;;;;;6.38;1.48;;;;;;;2.43;100.00;99758.22;4949072;29;20051;-45
2023/11/30 06:02:32;;;;;;;5.10;1.30;;;;;;;2.40;100.00;99753.38;4948744;29;20074;-43
2023/11/30 06:04:59;;;;;;;9.30;1.77;;;;;;;2.38;100.00;99745.50;4948854;29;20051;-46
2023/11/30 06:07:27;;;;;;;5.45;1.60;;;;;;;2.39;100.00;99751.75;4949201;29;20054;-50
2023/11/30 06:09:54;;;;;;;16.10;1.98;;;;;;;2.43;100.00;99752.75;4948350;29;20051;-47
2023/11/30 06:12:21;;;;;;;1.65;1.02;;;;;;;2.49;100.00;99770.59;4949273;29;20054;-47
2023/11/30 06:14:49;;;;;;;11.82;1.92;;;;;;;2.53;100.00;99768.88;4937191;29;20048;-46
2023/11/30 06:17:17;;;;;;;5.95;1.70;;;;;;;2.55;100.00;99769.34;4948949;29;20051;-46
2023/11/30 06:19:45;;;;;;;5.68;1.50;;;;;;;2.57;100.00;99766.31;4944253;28;20048;-45
2023/11/30 06:22:12;;;;;;;6.43;1.23;;;;;;;2.60;100.00;99768.38;4953019;29;20047;-46
2023/11/30 06:24:40;;;;;;;6.53;1.30;;;;;;;2.64;100.00;99781.13;4952198;29;20059;-48
2023/11/30 06:27:07;;;;;;;3.78;0.90;;;;;;;2.67;100.00;99775.03;4953205;29;20051;-43
2023/11/30 06:29:34;;;;;;;3.05;1.10;;;;;;;2.67;100.00;99777.75;4951982;29;20078;-47
2023/11/30 06:32:02;;;;;;;1.40;1.00;;;;;;;2.67;100.00;99777.75;4952747;29;20051;-48
2023/11/30 06:34:29;;;;;;;2.65;1.30;;;;;;;2.66;100.00;99780.78;4952219;29;20058;-47
2023/11/30 06:36:58;;;;;;;6.45;0.88;;;;;;;2.65;100.00;99771.00;4953220;29;20077;-47
2023/11/30 06:39:26;;;;;;;3.88;1.08;;;;;;;2.66;100.00;99780.78;4935457;29;20043;-50
2023/11/30 06:41:54;;;;;;;7.93;1.33;;;;;;;2.67;100.00;99780.50;4952489;29;20054;-45
2023/11/30 06:44:21;;;;;;;5.45;1.23;;;;;;;2.67;100.00;99779.69;4951621;29;20051;-45
2023/11/30 06:46:48;;;;;;;3.40;1.30;;;;;;;2.67;100.00;99785.97;4952142;29;20544;-46
2023/11/30 06:49:18;;;;;;;7.07;2.15;;;;;;;2.66;100.00;99784.34;4952619;29;20500;-46
2023/11/30 06:51:46;;;;;;;3.72;1.33;;;;;;;2.67;100.00;99796.09;4952443;29;20075;-46
2023/11/30 06:54:13;;;;;;;7.28;1.58;;;;;;;2.66;100.00;99783.53;4952059;29;20061;-44
2023/11/30 06:56:40;;;;;;;2.22;0.90;;;;;;;2.64;100.00;99789.31;4952175;29;20713;-47
2023/11/30 06:59:07;;;;;;;5.38;1.10;;;;;;;2.64;100.00;99792.06;4952466;29;20055;-45
2023/11/30 07:01:36;;;;;;;7.72;1.40;;;;;;;2.65;100.00;99792.88;4951544;29;20062;-43
2023/11/30 07:04:03;;;;;;;4.43;1.30;;;;;;;2.66;100.00;99789.81;4952373;29;20062;-44
2023/11/30 07:06:31;;;;;;;10.68;1.90;;;;;;;2.68;100.00;99798.47;4951972;29;20051;-45
2023/11/30 07:08:58;;;;;;;5.30;1.23;;;;;;;2.70;100.00;99790.00;4951009;29;20864;-42
2023/11/30 07:11:26;;;;;;;6.65;0.90;;;;;;;2.68;100.00;99792.22;4951543;29;20044;-43
2023/11/30 07:13:53;;;;;;;6.90;1.10;;;;;;;2.66;100.00;99798.00;4951887;29;20059;-44
2023/11/30 07:16:20;;;;;;;7.00;1.20;;;;;;;2.66;100.00;99803.47;4951943;29;20050;-44
2023/11/30 07:18:48;;;;;;;8.00;1.27;;;;;;;2.64;100.00;99802.97;4951155;29;20051;-44
2023/11/30 07:21:15;;;;;;;1.58;0.90;;;;;;;2.61;100.00;99809.06;4947353;29;20075;-48
2023/11/30 07:23:43;;;;;;;2.60;0.63;;;;;;;2.61;100.00;99808.25;4934014;29;20417;-44
2023/11/30 07:26:14;;;;;;;2.83;1.52;;;;;;;2.61;100.00;99809.06;4934269;29;20076;-47
2023/11/30 07:28:42;;;;;;;6.05;1.48;;;;;;;2.62;100.00;99804.44;4950963;29;20055;-47
2023/11/30 07:31:17;;;;;;;1.70;1.17;;;;;;;2.63;100.00;99811.47;4951310;28;20051;-47
2023/11/30 07:33:45;;;;;;;5.18;1.50;;;;;;;2.65;100.00;99814.72;4951657;29;20047;-44
2023/11/30 07:36:13;;;;;;;3.45;0.75;;;;;;;2.66;100.00;99814.41;4951213;29;20058;-44
2023/11/30 07:38:41;;;;;;;4.25;0.95;;;;;;;2.65;100.00;99815.50;4951170;29;20047;-44
2023/11/30 07:41:08;;;;;;;6.10;1.20;;;;;;;2.66;100.00;99829.97;4930092;29;20047;-46
2023/11/30 07:43:36;;;;;;;3.75;1.08;;;;;;;2.66;100.00;99824.53;4951458;29;20055;-46
2023/11/30 07:46:03;;;;;;;2.30;0.90;;;;;;;2.67;100.00;99835.16;4940781;29;20051;-47
2023/11/30 07:48:32;;;;;;;5.15;1.27;;;;;;;2.66;100.00;99828.06;4949559;29;20062;-44
2023/11/30 07:51:00;;;;;;;5.53;1.40;;;;;;;2.67;100.00;99829.69;4951220;29;20512;-47
2023/11/30 07:53:27;;;;;;;6.32;3.28;;;;;;;2.68;100.00;99831.28;4951286;28;20047;-44
2023/11/30 07:55:56;;;;;;;4.88;0.82;;;;;;;2.68;100.00;99831.28;4950827;29;20059;-45
2023/11/30 07:58:24;;;;;;;2.03;1.80;;;;;;;2.70;100.00;99844.66;4931700;29;20058;-45
2023/11/30 08:00:52;;;;;;;2.92;1.08;;;;;;;2.70;100.00;99850.88;4928432;28;20129;-46
2023/11/30 08:03:27;;;;;;;2.50;1.05;;;;;;;2.70;100.00;99850.88;4948364;28;20043;-45
2023/11/30 08:05:55;;;;;;;9.73;1.25;;;;;;;2.73;100.00;99858.47;4950720;29;20059;-43
2023/11/30 08:08:23;;;;;;;2.63;0.90;;;;;;;2.76;100.00;99860.56;4933441;29;20047;-43
2023/11/30 08:10:50;;;;;;;3.90;0.80;;;;;;;2.75;100.00;99861.72;4933690;29;20469;-44
2023/11/30 08:13:19;;;;;;;1.73;1.00;;;;;;;2.73;100.00;99872.13;4951090;29;20051;-44
2023/11/30 08:15:47;;;;;;;2.38;0.80;;;;;;;2.67;99.97;99862.47;4945658;29;20044;-43
2023/11/30 08:18:16;;;;;;;3.60;1.17;;;;;;;2.62;100.00;99859.06;4949378;29;20054;-43
2023/11/30 08:20:44;;;;;;;2.85;0.60;;;;;;;2.58;99.63;99863.53;4949919;28;20110;-44
2023/11/30 08:23:11;;;;;;;1.45;1.00;;;;;;;2.54;100.00;99873.50;4933237;29;20055;-43
2023/11/30 08:25:38;;;;;;;1.10;0.63;;;;;;;2.52;100.00;99881.97;4949244;28;20070;-45
2023/11/30 08:28:05;;;;;;;2.55;0.77;;;;;;;2.55;100.00;99886.81;4938213;29;20050;-45
2023/11/30 08:30:33;;;;;;;9.10;1.08;;;;;;;2.58;99.84;99886.19;4953720;28;20039;-47
2023/11/30 08:33:00;;;;;;;7.38;1.42;;;;;;;2.60;99.87;99885.88;4947524;29;20050;-43
2023/11/30 08:35:30;;;;;;;1.23;0.57;;;;;;;2.61;99.25;99896.50;4949822;29;20058;-47
2023/11/30 08:37:58;;;;;;;3.28;0.60;;;;;;;2.63;99.51;99898.91;4950335;29;20043;-47
2023/11/30 08:40:25;;;;;;;1.80;1.52;;;;;;;2.64;99.39;99889.63;4950599;29;20047;-47
2023/11/30 08:42:53;;;;;;;3.35;0.60;;;;;;;2.63;99.36;99891.53;4948380;28;20050;-47
2023/11/30 08:45:20;;;;;;;2.78;0.73;;;;;;;2.67;99.12;99894.47;4949796;29;20055;-47
2023/11/30 08:47:47;;;;;;;2.95;0.90;;;;;;;2.68;99.12;99885.94;4949356;29;20059;-46
2023/11/30 08:50:15;;;;;;;1.65;0.55;;;;;;;2.71;99.17;99885.31;4948883;29;20048;-48
2023/11/30 08:52:43;;;;;;;4.30;1.08;;;;;;;2.75;99.41;99901.91;4950527;29;20057;-48
2023/11/30 08:55:10;;;;;;;3.67;0.77;;;;;;;2.76;99.28;99898.84;4949896;29;20051;-47
2023/11/30 08:57:39;;;;;;;3.83;0.90;;;;;;;2.81;99.01;99901.44;4949899;29;20047;-43
2023/11/30 09:00:12;;;;;;;2.38;0.60;;;;;;;2.89;98.59;99906.13;4949461;29;20055;-45
2023/11/30 09:02:39;;;;;;;0.57;0.50;;;;;;;2.98;98.27;99917.13;4949789;29;20476;-48
2023/11/30 09:05:08;;;;;;;4.50;0.70;;;;;;;3.03;98.42;99914.25;4948256;29;20047;-48
2023/11/30 09:07:36;;;;;;;3.67;0.63;;;;;;;3.09;98.10;99923.94;4949687;29;20048;-46
2023/11/30 09:10:07;;;;;;;1.13;0.60;;;;;;;3.13;97.88;99932.28;4949467;29;20055;-48
2023/11/30 09:12:35;;;;;;;2.88;0.55;;;;;;;3.11;97.52;99951.75;4949620;29;20058;-47
2023/11/30 09:15:08;;;;;;;0.20;0.20;;;;;;;3.06;97.19;99933.56;4949863;29;20043;-49
2023/11/30 09:17:36;;;;;;;0.88;0.55;;;;;;;2.99;97.09;99930.47;4949978;29;20051;-45
2023/11/30 09:20:07;;;;;;;2.67;0.50;;;;;;;2.94;97.11;99922.41;4944510;29;20073;-46
2023/11/30 09:22:35;;;;;;;1.10;0.53;;;;;;;2.91;97.18;99927.72;4949310;29;20047;-47
2023/11/30 09:25:03;;;;;;;1.58;0.68;;;;;;;2.88;97.43;99920.13;4949515;29;20046;-44
2023/11/30 09:27:30;;;;;;;1.88;0.65;;;;;;;2.85;97.42;99929.75;4932811;29;20047;-48
2023/11/30 09:29:57;;;;;;;1.60;0.65;;;;;;;2.86;97.47;99927.84;4937059;29;20062;-48
2023/11/30 09:32:26;;;;;;;2.45;0.65;;;;;;;2.90;97.75;99943.28;4949800;29;20043;-48
2023/11/30 09:34:53;;;;;;;7.03;0.93;;;;;;;2.97;98.08;99937.34;4949185;29;20066;-49
2023/11/30 09:37:20;;;;;;;4.07;0.50;;;;;;;3.05;97.94;99931.94;4949218;29;20064;-45
2023/11/30 09:39:49;;;;;;;1.85;0.40;;;;;;;3.17;97.31;99941.47;4940140;29;20047;-48
2023/11/30 09:42:16;;;;;;;2.65;0.43;;;;;;;3.25;96.91;99937.97;4949018;29;20511;-45
2023/11/30 09:44:44;;;;;;;2.05;0.50;;;;;;;3.31;96.29;99931.25;4949719;29;20501;-43
2023/11/30 09:47:12;;;;;;;1.80;0.85;;;;;;;3.36;96.41;99928.38;4949543;28;20055;-47
2023/11/30 09:49:39;;;;;;;0.63;0.50;;;;;;;3.41;96.29;99942.72;4949294;29;20051;-47
2023/11/30 09:52:06;;;;;;;1.42;0.50;;;;;;;3.45;96.10;99940.13;4948602;29;20429;-45
2023/11/30 09:54:34;;;;;;;6.30;0.75;;;;;;;3.49;96.25;99949.31;4949087;28;20047;-50
2023/11/30 09:57:01;;;;;;;2.22;0.40;;;;;;;3.52;95.54;99938.53;4949376;29;20059;-49
2023/11/30 09:59:29;;;;;;;5.68;0.98;;;;;;;3.57;95.46;99952.06;4949554;29;20051;-50
2023/11/30 10:01:59;;;;;;;1.48;0.77;;;;;;;3.67;95.67;99950.97;4943465;29;20525;-48
2023/11/30 10:04:31;;;;;;;1.20;0.43;;;;;;;3.75;95.12;99957.59;4949342;29;20051;-49
2023/11/30 10:06:59;;;;;;;2.63;0.70;;;;;;;3.86;95.17;99958.91;4948779;29;20058;-46
2023/11/30 10:09:27;;;;;;;1.92;0.60;;;;;;;3.91;95.03;99959.56;4949364;28;20059;-43
2023/11/30 10:11:55;;;;;;;6.47;0.75;;;;;;;3.91;94.82;99956.81;4949269;29;20540;-42
2023/11/30 10:14:22;;;;;;;1.80;0.60;;;;;;;3.93;95.32;99960.03;4949333;29;20059;-46
2023/11/30 10:16:50;;;;;;;2.13;1.70;;;;;;;3.99;95.31;99958.78;4948933;29;20058;-47
2023/11/30 10:19:18;;;;;;;3.15;0.80;;;;;;;4.06;95.26;99963.75;4944608;29;20047;-43
2023/11/30 10:21:45;;;;;;;1.98;1.65;;;;;;;4.08;94.96;99959.56;4948261;29;20055;-46
2023/11/30 10:24:13;;;;;;;3.08;1.15;;;;;;;4.06;94.98;99961.81;4949471;29;20531;-47
2023/11/30 10:26:43;;;;;;;3.30;0.90;;;;;;;3.98;94.93;99962.63;4935705;29;20047;-46
2023/11/30 10:29:15;;;;;;;3.40;0.63;;;;;;;3.84;94.59;99961.94;4941022;29;20070;-46
2023/11/30 10:31:43;;;;;;;0.67;0.50;;;;;;;3.79;95.05;99959.38;4949005;29;20059;-49
2023/11/30 10:34:13;;;;;;;3.45;0.45;;;;;;;3.82;95.56;99974.34;4948884;29;20052;-46
2023/11/30 10:36:43;;;;;;;0.20;0.20;;;;;;;3.86;95.33;99970.66;4931436;29;20066;-45
2023/11/30 10:39:22;;;;;;;1.17;0.40;;;;;;;3.88;95.00;99968.41;4948867;29;20470;-47
2023/11/30 10:41:52;;;;;;;1.73;0.60;;;;;;;3.84;95.04;99981.13;4949189;29;20050;-47
2023/11/30 10:44:28;;;;;;;0.98;0.30;;;;;;;3.81;94.94;99984.50;4949065;29;20047;-44
2023/11/30 10:46:57;;;;;;;3.10;0.60;;;;;;;3.80;95.00;99973.88;4948847;29;20075;-48
2023/11/30 10:49:27;;;;;;;1.98;0.75;;;;;;;3.80;95.26;99984.81;4947743;28;20055;-50
2023/11/30 10:51:56;;;;;;;3.30;0.57;;;;;;;3.82;95.34;99972.41;4948388;29;20066;-48
2023/11/30 10:54:54;;;;;;;3.17;0.50;;;;;;;3.79;95.18;99981.25;4946886;29;20659;-47
2023/11/30 10:57:21;;;;;;;2.45;0.90;;;;;;;3.77;94.99;99978.03;4948775;29;20063;-46
2023/11/30 10:59:57;;;;;;;3.30;0.80;;;;;;;3.66;94.99;99987.69;4948495;29;20066;-50
2023/11/30 11:02:59;;;;;;;7.65;1.10;;;;;;;3.50;94.55;99990.03;4948753;29;20055;-47
2023/11/30 11:05:27;;;;;;;1.70;0.40;;;;;;;3.37;94.77;99992.88;4913439;29;20058;-50
2023/11/30 11:07:58;;;;;;;2.00;0.77;;;;;;;3.30;95.10;99989.81;4951813;29;20382;-48
2023/11/30 11:10:27;;;;;;;2.60;0.47;;;;;;;3.20;94.93;99990.09;4923795;29;20070;-45
2023/11/30 11:12:58;;;;;;;2.28;1.45;;;;;;;3.12;95.20;99988.94;4952062;29;20513;-50
2023/11/30 11:15:28;;;;;;;1.70;0.68;;;;;;;3.12;95.70;100004.53;4952236;29;20051;-48
2023/11/30 11:18:02;;;;;;;5.22;1.40;;;;;;;3.13;95.98;99995.19;4950931;29;20051;-47
2023/11/30 11:20:32;;;;;;;7.43;2.17;;;;;;;3.13;95.81;99989.72;4945560;29;20498;-44
2023/11/30 11:23:02;;;;;;;1.20;0.82;;;;;;;3.12;96.11;99983.47;4948474;29;20055;-47
2023/11/30 11:25:39;;;;;;;4.05;0.77;;;;;;;3.13;95.95;99986.97;4951982;29;20039;-47
2023/11/30 11:28:06;;;;;;;2.28;0.68;;;;;;;3.14;96.10;99981.22;4951617;29;20048;-48
2023/11/30 11:30:43;;;;;;;4.57;1.10;;;;;;;3.16;96.25;99980.88;4950786;29;20752;-47
2023/11/30 11:33:12;;;;;;;4.20;1.88;;;;;;;3.20;96.33;99984.63;4952130;29;20058;-48
2023/11/30 11:35:40;;;;;;;4.45;0.70;;;;;;;3.21;96.31;99987.03;4950940;29;20047;-52
2023/11/30 11:38:07;;;;;;;5.32;1.30;;;;;;;3.23;96.46;99989.47;4951942;29;20540;-48
2023/11/30 11:40:41;;;;;;;1.92;0.85;;;;;;;3.24;96.62;99986.41;4951423;29;20054;-48
2023/11/30 11:43:09;;;;;;;24.75;3.42;;;;;;;3.23;96.87;99984.00;4950141;29;20055;-49